CheckWX is a tool to help pilots better visualize weather data.  It is not intended as a substitute for an official pre-flight weather briefing.

03:24:17 UTC

KDAY METAR
James M Cox Dayton International Airport
Dayton, Ohio, USA
Current

28 mins ago

KDAY 240256Z 15005KT 10SM BKN250 07/M09 A3027 RMK AO2 SLP255 T00721089 58002
Observed
Mar-24 @ 02:56 UTC
Wind
  • 150° at 5 KTS
Visibility
10 SM
Flight Rules
VFR
Cloud Levels
  • Broken at 25,000' AGL
Temperature
C / 45°F
Dewpoint
-9°C / 16°F
Humidity
31%
Altimeter
30.27" Hg
Pressure
1025.5 hPa
Previous

1 hour ago

KDAY 240156Z 14003KT 10SM BKN250 07/M08 A3027 RMK AO2 SLP257 T00721083
Observed
Mar-24 @ 01:56 UTC
Wind
  • 140° at 3 KTS
Visibility
10 SM
Flight Rules
VFR
Cloud Levels
  • Broken at 25,000' AGL
Temperature
C / 45°F
Dewpoint
-8°C / 18°F
Humidity
34%
Altimeter
30.27" Hg
Pressure
1025.7 hPa
Previous

2 hours ago

KDAY 240056Z 00000KT 10SM SCT250 08/M08 A3027 RMK AO2 SLP260 T00781083
Observed
Mar-24 @ 00:56 UTC
Visibility
10 SM
Flight Rules
VFR
Cloud Levels
  • Scattered at 25,000' AGL
Temperature
C / 46°F
Dewpoint
-8°C / 18°F
Humidity
32%
Altimeter
30.27" Hg
Pressure
1026 hPa